sensor_id;sensor_type;location;lat;lon;timestamp;pressure;altitude;pressure_sealevel;temperature;humidity
16777;BME280;8505;49.456;8.164;2023-01-23T00:01:04;101173.28;;;0.92;92.84
16777;BME280;8505;49.456;8.164;2023-01-23T00:03:32;101167.78;;;0.98;91.87
16777;BME280;8505;49.456;8.164;2023-01-23T00:06:02;101161.34;;;1.05;92.13
16777;BME280;8505;49.456;8.164;2023-01-23T00:08:32;101161.19;;;1.08;92.13
16777;BME280;8505;49.456;8.164;2023-01-23T00:11:03;101168.53;;;1.00;91.72
16777;BME280;8505;49.456;8.164;2023-01-23T00:13:31;101168.09;;;1.09;91.86
16777;BME280;8505;49.456;8.164;2023-01-23T00:16:02;101165.19;;;1.15;91.32
16777;BME280;8505;49.456;8.164;2023-01-23T00:18:30;101161.66;;;1.16;91.28
16777;BME280;8505;49.456;8.164;2023-01-23T00:20:58;101165.25;;;1.31;91.30
16777;BME280;8505;49.456;8.164;2023-01-23T00:23:29;101179.56;;;0.88;92.42
16777;BME280;8505;49.456;8.164;2023-01-23T00:26:02;101174.38;;;1.39;91.01
16777;BME280;8505;49.456;8.164;2023-01-23T00:28:30;101172.84;;;1.35;89.82
16777;BME280;8505;49.456;8.164;2023-01-23T00:31:03;101174.53;;;1.36;90.32
16777;BME280;8505;49.456;8.164;2023-01-23T00:33:31;101164.88;;;1.21;90.56
16777;BME280;8505;49.456;8.164;2023-01-23T00:35:59;101172.16;;;0.97;91.92
16777;BME280;8505;49.456;8.164;2023-01-23T00:38:27;101167.31;;;1.24;91.12
16777;BME280;8505;49.456;8.164;2023-01-23T00:40:54;101171.44;;;0.94;91.50
16777;BME280;8505;49.456;8.164;2023-01-23T00:43:24;101164.34;;;1.14;90.79
16777;BME280;8505;49.456;8.164;2023-01-23T00:45:51;101167.91;;;0.95;90.94
16777;BME280;8505;49.456;8.164;2023-01-23T00:48:19;101164.09;;;1.02;91.48
16777;BME280;8505;49.456;8.164;2023-01-23T00:50:47;101164.03;;;1.03;90.72
16777;BME280;8505;49.456;8.164;2023-01-23T00:53:15;101167.16;;;1.27;90.84
16777;BME280;8505;49.456;8.164;2023-01-23T00:55:42;101171.31;;;0.97;91.21
16777;BME280;8505;49.456;8.164;2023-01-23T00:58:10;101163.28;;;1.36;90.10
16777;BME280;8505;49.456;8.164;2023-01-23T01:00:39;101164.25;;;1.33;89.86
16777;BME280;8505;49.456;8.164;2023-01-23T01:03:07;101171.91;;;1.36;89.73
16777;BME280;8505;49.456;8.164;2023-01-23T01:05:35;101170.63;;;1.28;90.07
16777;BME280;8505;49.456;8.164;2023-01-23T01:08:03;101175.50;;;0.99;91.30
16777;BME280;8505;49.456;8.164;2023-01-23T01:10:31;101177.44;;;1.13;90.94
16777;BME280;8505;49.456;8.164;2023-01-23T01:13:01;101177.31;;;0.99;90.79
16777;BME280;8505;49.456;8.164;2023-01-23T01:15:29;101173.53;;;1.21;90.52
16777;BME280;8505;49.456;8.164;2023-01-23T01:17:58;101177.75;;;1.07;91.08
16777;BME280;8505;49.456;8.164;2023-01-23T01:20:27;101182.81;;;1.10;90.50
16777;BME280;8505;49.456;8.164;2023-01-23T01:22:56;101181.38;;;1.04;90.78
16777;BME280;8505;49.456;8.164;2023-01-23T01:25:24;101182.28;;;1.03;90.09
16777;BME280;8505;49.456;8.164;2023-01-23T01:27:52;101186.13;;;1.31;89.86
16777;BME280;8505;49.456;8.164;2023-01-23T01:30:21;101180.34;;;1.07;90.32
16777;BME280;8505;49.456;8.164;2023-01-23T01:32:51;101184.19;;;1.00;90.45
16777;BME280;8505;49.456;8.164;2023-01-23T01:35:21;101178.53;;;1.09;89.95
16777;BME280;8505;49.456;8.164;2023-01-23T01:37:49;101181.06;;;1.28;90.04
16777;BME280;8505;49.456;8.164;2023-01-23T01:40:19;101175.75;;;1.12;89.39
16777;BME280;8505;49.456;8.164;2023-01-23T01:42:51;101181.13;;;0.92;90.87
16777;BME280;8505;49.456;8.164;2023-01-23T01:48:26;101183.44;;;1.15;90.00
16777;BME280;8505;49.456;8.164;2023-01-23T01:50:59;101189.38;;;1.00;90.38
16777;BME280;8505;49.456;8.164;2023-01-23T01:53:28;101187.63;;;1.00;90.71
16777;BME280;8505;49.456;8.164;2023-01-23T01:55:57;101197.78;;;1.23;89.72
16777;BME280;8505;49.456;8.164;2023-01-23T01:58:26;101194.41;;;1.04;89.86
16777;BME280;8505;49.456;8.164;2023-01-23T02:00:54;101200.59;;;1.02;90.82
16777;BME280;8505;49.456;8.164;2023-01-23T02:03:23;101201.16;;;1.08;90.30
16777;BME280;8505;49.456;8.164;2023-01-23T02:05:51;101204.84;;;1.04;90.65
16777;BME280;8505;49.456;8.164;2023-01-23T02:08:25;101201.53;;;1.18;89.31
16777;BME280;8505;49.456;8.164;2023-01-23T02:10:54;101200.31;;;1.08;89.58
16777;BME280;8505;49.456;8.164;2023-01-23T02:13:24;101208.75;;;1.13;89.56
16777;BME280;8505;49.456;8.164;2023-01-23T02:15:56;101197.47;;;1.12;89.63
16777;BME280;8505;49.456;8.164;2023-01-23T02:18:26;101202.53;;;0.98;89.69
16777;BME280;8505;49.456;8.164;2023-01-23T02:20:55;101210.91;;;1.05;89.71
16777;BME280;8505;49.456;8.164;2023-01-23T02:23:33;101212.56;;;1.06;89.32
16777;BME280;8505;49.456;8.164;2023-01-23T02:26:06;101214.28;;;1.24;89.22
16777;BME280;8505;49.456;8.164;2023-01-23T02:28:37;101213.38;;;0.89;89.75
16777;BME280;8505;49.456;8.164;2023-01-23T02:31:05;101204.66;;;0.90;89.65
16777;BME280;8505;49.456;8.164;2023-01-23T02:33:45;101203.03;;;0.88;90.40
16777;BME280;8505;49.456;8.164;2023-01-23T02:36:14;101209.41;;;0.99;89.98
16777;BME280;8505;49.456;8.164;2023-01-23T02:38:48;101210.41;;;0.97;90.23
16777;BME280;8505;49.456;8.164;2023-01-23T02:41:24;101211.41;;;0.94;90.14
16777;BME280;8505;49.456;8.164;2023-01-23T02:43:55;101209.88;;;1.07;88.92
16777;BME280;8505;49.456;8.164;2023-01-23T02:46:23;101204.00;;;1.04;88.46
16777;BME280;8505;49.456;8.164;2023-01-23T02:48:51;101213.97;;;1.13;88.85
16777;BME280;8505;49.456;8.164;2023-01-23T02:51:19;101216.69;;;0.93;89.58
16777;BME280;8505;49.456;8.164;2023-01-23T02:53:48;101218.31;;;0.95;89.49
16777;BME280;8505;49.456;8.164;2023-01-23T02:56:16;101217.34;;;1.15;89.33
16777;BME280;8505;49.456;8.164;2023-01-23T02:58:45;101213.50;;;1.05;88.82
16777;BME280;8505;49.456;8.164;2023-01-23T03:01:30;101213.03;;;1.14;88.51
16777;BME280;8505;49.456;8.164;2023-01-23T03:04:02;101222.75;;;1.29;88.73
16777;BME280;8505;49.456;8.164;2023-01-23T03:06:33;101217.34;;;1.15;88.04
16777;BME280;8505;49.456;8.164;2023-01-23T03:09:05;101212.31;;;0.93;88.73
16777;BME280;8505;49.456;8.164;2023-01-23T03:11:36;101218.97;;;0.81;89.69
16777;BME280;8505;49.456;8.164;2023-01-23T03:14:08;101214.38;;;0.87;89.84
16777;BME280;8505;49.456;8.164;2023-01-23T03:16:36;101220.31;;;1.07;89.80
16777;BME280;8505;49.456;8.164;2023-01-23T03:19:05;101221.78;;;1.13;88.39
16777;BME280;8505;49.456;8.164;2023-01-23T03:21:36;101220.88;;;1.31;88.43
16777;BME280;8505;49.456;8.164;2023-01-23T03:24:06;101221.22;;;1.06;88.93
16777;BME280;8505;49.456;8.164;2023-01-23T03:26:36;101213.25;;;0.92;89.43
16777;BME280;8505;49.456;8.164;2023-01-23T03:29:06;101217.09;;;1.02;89.21
16777;BME280;8505;49.456;8.164;2023-01-23T03:31:51;101208.69;;;0.78;90.43
16777;BME280;8505;49.456;8.164;2023-01-23T03:34:19;101208.59;;;0.99;89.69
16777;BME280;8505;49.456;8.164;2023-01-23T03:36:47;101214.47;;;0.85;90.31
16777;BME280;8505;49.456;8.164;2023-01-23T03:39:15;101214.22;;;0.90;90.01
16777;BME280;8505;49.456;8.164;2023-01-23T03:42:00;101218.41;;;0.75;90.09
16777;BME280;8505;49.456;8.164;2023-01-23T03:44:29;101216.78;;;0.91;89.22
16777;BME280;8505;49.456;8.164;2023-01-23T03:46:57;101213.16;;;0.94;89.68
16777;BME280;8505;49.456;8.164;2023-01-23T03:49:24;101224.03;;;0.85;89.96
16777;BME280;8505;49.456;8.164;2023-01-23T03:51:52;101222.56;;;0.79;89.39
16777;BME280;8505;49.456;8.164;2023-01-23T03:54:19;101225.88;;;0.82;89.69
16777;BME280;8505;49.456;8.164;2023-01-23T03:56:47;101222.34;;;0.84;90.06
16777;BME280;8505;49.456;8.164;2023-01-23T03:59:15;101225.88;;;0.64;90.45
16777;BME280;8505;49.456;8.164;2023-01-23T04:01:44;101231.03;;;0.84;89.87
16777;BME280;8505;49.456;8.164;2023-01-23T04:04:13;101236.91;;;0.88;89.74
16777;BME280;8505;49.456;8.164;2023-01-23T04:06:41;101232.44;;;0.72;90.46
16777;BME280;8505;49.456;8.164;2023-01-23T04:09:08;101232.16;;;0.78;89.96
16777;BME280;8505;49.456;8.164;2023-01-23T04:11:36;101237.06;;;0.85;89.38
16777;BME280;8505;49.456;8.164;2023-01-23T04:14:03;101241.56;;;0.81;89.88
16777;BME280;8505;49.456;8.164;2023-01-23T04:16:31;101236.56;;;0.95;89.49
16777;BME280;8505;49.456;8.164;2023-01-23T04:19:00;101227.63;;;0.82;89.15
16777;BME280;8505;49.456;8.164;2023-01-23T04:21:28;101220.75;;;0.62;89.84
16777;BME280;8505;49.456;8.164;2023-01-23T04:23:58;101226.38;;;0.72;89.85
16777;BME280;8505;49.456;8.164;2023-01-23T04:26:25;101226.78;;;0.81;89.77
16777;BME280;8505;49.456;8.164;2023-01-23T04:28:53;101212.19;;;0.96;89.22
16777;BME280;8505;49.456;8.164;2023-01-23T04:31:20;101223.31;;;0.81;89.34
16777;BME280;8505;49.456;8.164;2023-01-23T04:33:48;101237.31;;;0.80;89.00
16777;BME280;8505;49.456;8.164;2023-01-23T04:36:17;101231.44;;;0.75;89.92
16777;BME280;8505;49.456;8.164;2023-01-23T04:38:44;101229.00;;;0.53;89.95
16777;BME280;8505;49.456;8.164;2023-01-23T04:41:17;101225.53;;;0.71;89.49
16777;BME280;8505;49.456;8.164;2023-01-23T04:43:45;101227.22;;;0.72;88.58
16777;BME280;8505;49.456;8.164;2023-01-23T04:46:13;101226.31;;;0.73;89.48
16777;BME280;8505;49.456;8.164;2023-01-23T04:48:41;101231.31;;;0.78;88.60
16777;BME280;8505;49.456;8.164;2023-01-23T04:51:09;101228.84;;;0.75;88.76
16777;BME280;8505;49.456;8.164;2023-01-23T04:53:38;101235.97;;;1.07;88.68
16777;BME280;8505;49.456;8.164;2023-01-23T04:56:06;101232.69;;;1.04;87.63
16777;BME280;8505;49.456;8.164;2023-01-23T04:58:33;101230.69;;;1.26;87.76
16777;BME280;8505;49.456;8.164;2023-01-23T05:01:01;101235.38;;;1.19;87.81
16777;BME280;8505;49.456;8.164;2023-01-23T05:03:29;101242.78;;;1.29;87.12
16777;BME280;8505;49.456;8.164;2023-01-23T05:05:58;101249.75;;;1.28;87.09
16777;BME280;8505;49.456;8.164;2023-01-23T05:08:25;101261.19;;;1.07;87.19
16777;BME280;8505;49.456;8.164;2023-01-23T05:10:54;101258.81;;;1.02;87.25
16777;BME280;8505;49.456;8.164;2023-01-23T05:13:22;101263.41;;;1.33;87.43
16777;BME280;8505;49.456;8.164;2023-01-23T05:15:50;101267.84;;;1.48;86.41
16777;BME280;8505;49.456;8.164;2023-01-23T05:18:17;101272.16;;;1.49;85.93
16777;BME280;8505;49.456;8.164;2023-01-23T05:20:45;101272.16;;;1.49;85.83
16777;BME280;8505;49.456;8.164;2023-01-23T05:23:12;101274.28;;;1.24;86.89
16777;BME280;8505;49.456;8.164;2023-01-23T05:25:40;101272.31;;;1.46;86.28
16777;BME280;8505;49.456;8.164;2023-01-23T05:28:09;101271.91;;;1.19;86.48
16777;BME280;8505;49.456;8.164;2023-01-23T05:30:37;101273.16;;;1.30;86.70
16777;BME280;8505;49.456;8.164;2023-01-23T05:33:05;101274.81;;;1.13;86.37
16777;BME280;8505;49.456;8.164;2023-01-23T05:35:33;101272.41;;;1.09;86.87
16777;BME280;8505;49.456;8.164;2023-01-23T05:38:00;101275.94;;;1.08;87.23
16777;BME280;8505;49.456;8.164;2023-01-23T05:40:28;101270.44;;;1.31;86.28
16777;BME280;8505;49.456;8.164;2023-01-23T05:42:55;101273.69;;;1.36;86.83
16777;BME280;8505;49.456;8.164;2023-01-23T05:45:25;101281.13;;;1.27;86.38
16777;BME280;8505;49.456;8.164;2023-01-23T05:47:52;101283.69;;;1.45;86.26
16777;BME280;8505;49.456;8.164;2023-01-23T05:50:21;101296.13;;;1.40;86.47
16777;BME280;8505;49.456;8.164;2023-01-23T05:52:50;101286.09;;;1.31;85.87
16777;BME280;8505;49.456;8.164;2023-01-23T05:55:17;101281.66;;;1.33;87.07
16777;BME280;8505;49.456;8.164;2023-01-23T05:57:45;101286.09;;;1.31;86.46
16777;BME280;8505;49.456;8.164;2023-01-23T06:00:14;101298.53;;;1.26;86.86
16777;BME280;8505;49.456;8.164;2023-01-23T06:02:43;101291.25;;;0.97;87.66
16777;BME280;8505;49.456;8.164;2023-01-23T06:05:12;101288.88;;;0.92;88.33
16777;BME280;8505;49.456;8.164;2023-01-23T06:07:40;101300.78;;;0.98;87.93
16777;BME280;8505;49.456;8.164;2023-01-23T06:10:08;101297.94;;;1.02;87.92
16777;BME280;8505;49.456;8.164;2023-01-23T06:12:36;101304.63;;;1.08;87.96
16777;BME280;8505;49.456;8.164;2023-01-23T06:15:05;101307.00;;;1.12;88.39
16777;BME280;8505;49.456;8.164;2023-01-23T06:17:33;101302.06;;;1.25;87.29
16777;BME280;8505;49.456;8.164;2023-01-23T06:20:02;101305.16;;;1.33;86.59
16777;BME280;8505;49.456;8.164;2023-01-23T06:22:30;101306.25;;;1.46;86.73
16777;BME280;8505;49.456;8.164;2023-01-23T06:24:57;101310.25;;;1.17;86.66
16777;BME280;8505;49.456;8.164;2023-01-23T06:27:25;101309.94;;;1.23;86.43
16777;BME280;8505;49.456;8.164;2023-01-23T06:29:53;101307.94;;;1.47;86.55
16777;BME280;8505;49.456;8.164;2023-01-23T06:32:20;101316.28;;;1.37;86.62
16777;BME280;8505;49.456;8.164;2023-01-23T06:34:49;101312.81;;;1.36;86.00
16777;BME280;8505;49.456;8.164;2023-01-23T06:37:18;101307.56;;;1.55;85.98
16777;BME280;8505;49.456;8.164;2023-01-23T06:39:45;101312.44;;;1.27;86.51
16777;BME280;8505;49.456;8.164;2023-01-23T06:42:13;101308.34;;;1.21;86.84
16777;BME280;8505;49.456;8.164;2023-01-23T06:44:41;101308.88;;;1.46;86.13
16777;BME280;8505;49.456;8.164;2023-01-23T06:47:09;101321.75;;;1.49;85.78
16777;BME280;8505;49.456;8.164;2023-01-23T06:49:37;101320.50;;;1.39;85.97
16777;BME280;8505;49.456;8.164;2023-01-23T06:52:04;101316.31;;;1.18;87.47
16777;BME280;8505;49.456;8.164;2023-01-23T06:54:34;101317.16;;;1.18;87.14
16777;BME280;8505;49.456;8.164;2023-01-23T06:57:02;101319.16;;;1.13;87.72
16777;BME280;8505;49.456;8.164;2023-01-23T06:59:31;101313.25;;;1.10;87.12
16777;BME280;8505;49.456;8.164;2023-01-23T07:01:58;101307.41;;;1.41;86.91
16777;BME280;8505;49.456;8.164;2023-01-23T07:04:26;101327.25;;;1.43;86.32
16777;BME280;8505;49.456;8.164;2023-01-23T07:06:53;101319.59;;;1.40;86.12
16777;BME280;8505;49.456;8.164;2023-01-23T07:09:21;101326.41;;;1.43;86.40
16777;BME280;8505;49.456;8.164;2023-01-23T07:11:50;101324.06;;;1.19;86.28
16777;BME280;8505;49.456;8.164;2023-01-23T07:14:18;101326.03;;;1.33;85.92
16777;BME280;8505;49.456;8.164;2023-01-23T07:16:45;101327.81;;;1.50;85.45
16777;BME280;8505;49.456;8.164;2023-01-23T07:19:13;101336.97;;;1.41;86.03
16777;BME280;8505;49.456;8.164;2023-01-23T07:22:05;101342.41;;;1.18;86.25
16777;BME280;8505;49.456;8.164;2023-01-23T07:24:33;101348.66;;;1.33;86.16
16777;BME280;8505;49.456;8.164;2023-01-23T07:27:02;101349.66;;;1.30;86.63
16777;BME280;8505;49.456;8.164;2023-01-23T07:29:30;101350.97;;;1.39;85.86
16777;BME280;8505;49.456;8.164;2023-01-23T07:31:57;101354.09;;;1.47;85.36
16777;BME280;8505;49.456;8.164;2023-01-23T07:34:26;101359.69;;;1.56;84.85
16777;BME280;8505;49.456;8.164;2023-01-23T07:36:53;101360.88;;;1.32;85.17
16777;BME280;8505;49.456;8.164;2023-01-23T07:39:21;101362.28;;;1.20;86.11
16777;BME280;8505;49.456;8.164;2023-01-23T07:41:49;101367.88;;;1.49;85.57
16777;BME280;8505;49.456;8.164;2023-01-23T07:44:20;101375.72;;;1.49;85.30
16777;BME280;8505;49.456;8.164;2023-01-23T07:46:48;101378.31;;;1.49;84.40
16777;BME280;8505;49.456;8.164;2023-01-23T07:49:16;101386.91;;;1.34;85.69
16777;BME280;8505;49.456;8.164;2023-01-23T07:51:43;101389.22;;;1.40;85.89
16777;BME280;8505;49.456;8.164;2023-01-23T07:54:11;101388.75;;;1.49;85.08
16777;BME280;8505;49.456;8.164;2023-01-23T07:56:38;101390.72;;;1.62;85.04
16777;BME280;8505;49.456;8.164;2023-01-23T07:59:06;101393.50;;;1.59;85.17
16777;BME280;8505;49.456;8.164;2023-01-23T08:01:35;101397.25;;;1.35;86.39
16777;BME280;8505;49.456;8.164;2023-01-23T08:04:03;101405.50;;;1.07;86.88
16777;BME280;8505;49.456;8.164;2023-01-23T08:06:31;101403.47;;;1.33;85.80
16777;BME280;8505;49.456;8.164;2023-01-23T08:08:59;101409.94;;;1.43;86.28
16777;BME280;8505;49.456;8.164;2023-01-23T08:11:27;101409.38;;;1.36;86.08
16777;BME280;8505;49.456;8.164;2023-01-23T08:13:54;101414.34;;;1.05;87.06
16777;BME280;8505;49.456;8.164;2023-01-23T08:16:22;101417.56;;;1.47;86.17
16777;BME280;8505;49.456;8.164;2023-01-23T08:18:51;101410.78;;;1.06;86.70
16777;BME280;8505;49.456;8.164;2023-01-23T08:21:19;101411.50;;;1.28;86.91
16777;BME280;8505;49.456;8.164;2023-01-23T08:23:47;101405.56;;;1.25;87.09
16777;BME280;8505;49.456;8.164;2023-01-23T08:26:16;101406.97;;;1.32;86.94
16777;BME280;8505;49.456;8.164;2023-01-23T08:28:44;101400.25;;;1.63;85.27
16777;BME280;8505;49.456;8.164;2023-01-23T08:31:13;101401.06;;;1.83;84.93
16777;BME280;8505;49.456;8.164;2023-01-23T08:33:41;101394.97;;;1.82;84.67
16777;BME280;8505;49.456;8.164;2023-01-23T08:36:11;101397.34;;;1.87;84.68
16777;BME280;8505;49.456;8.164;2023-01-23T08:38:39;101402.81;;;1.82;84.47
16777;BME280;8505;49.456;8.164;2023-01-23T08:41:07;101389.88;;;1.62;85.47
16777;BME280;8505;49.456;8.164;2023-01-23T08:43:37;101391.78;;;1.58;85.13
16777;BME280;8505;49.456;8.164;2023-01-23T08:46:07;101396.44;;;1.88;84.69
16777;BME280;8505;49.456;8.164;2023-01-23T08:48:36;101392.41;;;1.63;84.92
16777;BME280;8505;49.456;8.164;2023-01-23T08:51:06;101399.56;;;1.60;85.07
16777;BME280;8505;49.456;8.164;2023-01-23T08:53:35;101390.00;;;2.12;83.23
16777;BME280;8505;49.456;8.164;2023-01-23T08:56:05;101393.94;;;2.21;83.23
16777;BME280;8505;49.456;8.164;2023-01-23T08:58:33;101388.31;;;2.46;82.42
16777;BME280;8505;49.456;8.164;2023-01-23T09:01:01;101375.38;;;2.42;81.91
16777;BME280;8505;49.456;8.164;2023-01-23T09:03:29;101390.63;;;2.34;82.03
16777;BME280;8505;49.456;8.164;2023-01-23T09:05:59;101381.31;;;2.29;82.65
16777;BME280;8505;49.456;8.164;2023-01-23T09:08:27;101389.78;;;1.99;83.02
16777;BME280;8505;49.456;8.164;2023-01-23T09:11:00;101400.59;;;1.92;83.51
16777;BME280;8505;49.456;8.164;2023-01-23T09:13:28;101400.31;;;2.15;82.82
16777;BME280;8505;49.456;8.164;2023-01-23T09:15:56;101400.75;;;2.23;82.57
16777;BME280;8505;49.456;8.164;2023-01-23T09:18:24;101403.31;;;2.08;83.31
16777;BME280;8505;49.456;8.164;2023-01-23T09:20:52;101403.84;;;2.14;82.57
16777;BME280;8505;49.456;8.164;2023-01-23T09:23:21;101407.22;;;2.16;82.78
16777;BME280;8505;49.456;8.164;2023-01-23T09:25:49;101406.91;;;2.22;82.13
16777;BME280;8505;49.456;8.164;2023-01-23T09:28:18;101412.00;;;2.25;83.18
16777;BME280;8505;49.456;8.164;2023-01-23T09:30:45;101417.22;;;2.08;83.47
16777;BME280;8505;49.456;8.164;2023-01-23T09:33:13;101404.63;;;2.33;82.17
16777;BME280;8505;49.456;8.164;2023-01-23T09:35:42;101412.44;;;1.99;82.56
16777;BME280;8505;49.456;8.164;2023-01-23T09:38:10;101410.28;;;2.07;83.18
16777;BME280;8505;49.456;8.164;2023-01-23T09:40:45;101410.91;;;2.47;84.43
16777;BME280;8505;49.456;8.164;2023-01-23T09:43:17;101412.28;;;1.85;84.38
16777;BME280;8505;49.456;8.164;2023-01-23T09:45:56;101408.84;;;2.19;83.14
16777;BME280;8505;49.456;8.164;2023-01-23T09:48:27;101418.66;;;1.96;83.85
16777;BME280;8505;49.456;8.164;2023-01-23T09:51:00;101419.03;;;1.89;84.00
16777;BME280;8505;49.456;8.164;2023-01-23T09:53:34;101422.03;;;1.98;83.76
16777;BME280;8505;49.456;8.164;2023-01-23T09:56:05;101424.25;;;1.89;84.17
16777;BME280;8505;49.456;8.164;2023-01-23T09:58:46;101421.78;;;1.86;84.50
16777;BME280;8505;49.456;8.164;2023-01-23T10:01:17;101427.13;;;2.01;83.04
16777;BME280;8505;49.456;8.164;2023-01-23T10:03:45;101419.44;;;2.33;82.70
16777;BME280;8505;49.456;8.164;2023-01-23T10:06:19;101420.19;;;2.35;82.76
16777;BME280;8505;49.456;8.164;2023-01-23T10:09:10;101418.13;;;2.24;82.77
16777;BME280;8505;49.456;8.164;2023-01-23T10:11:54;101423.81;;;2.50;82.03
16777;BME280;8505;49.456;8.164;2023-01-23T10:14:38;101420.91;;;2.38;82.66
16777;BME280;8505;49.456;8.164;2023-01-23T10:17:19;101427.22;;;2.34;83.07
16777;BME280;8505;49.456;8.164;2023-01-23T10:20:01;101426.19;;;2.37;82.35
16777;BME280;8505;49.456;8.164;2023-01-23T10:22:33;101423.66;;;2.35;83.07
16777;BME280;8505;49.456;8.164;2023-01-23T10:25:11;101414.97;;;2.35;82.34
16777;BME280;8505;49.456;8.164;2023-01-23T10:27:42;101410.28;;;2.07;83.70
16777;BME280;8505;49.456;8.164;2023-01-23T10:30:18;101410.34;;;1.88;83.92
16777;BME280;8505;49.456;8.164;2023-01-23T10:32:50;101405.06;;;2.41;82.72
16777;BME280;8505;49.456;8.164;2023-01-23T10:35:22;101409.00;;;2.66;81.75
16777;BME280;8505;49.456;8.164;2023-01-23T10:37:54;101402.81;;;2.51;81.90
16777;BME280;8505;49.456;8.164;2023-01-23T10:40:27;101407.22;;;2.51;81.35
16777;BME280;8505;49.456;8.164;2023-01-23T10:43:13;101403.47;;;2.72;80.97
16777;BME280;8505;49.456;8.164;2023-01-23T10:45:42;101404.13;;;2.42;81.17
16777;BME280;8505;49.456;8.164;2023-01-23T10:48:36;101407.88;;;2.54;81.03
16777;BME280;8505;49.456;8.164;2023-01-23T10:51:24;101408.38;;;2.45;80.77
16777;BME280;8505;49.456;8.164;2023-01-23T10:54:08;101405.78;;;2.61;80.32
16777;BME280;8505;49.456;8.164;2023-01-23T10:56:54;101407.22;;;2.51;80.48
16777;BME280;8505;49.456;8.164;2023-01-23T10:59:32;101407.78;;;2.73;80.31
16777;BME280;8505;49.456;8.164;2023-01-23T11:02:19;101407.88;;;2.71;80.15
16777;BME280;8505;49.456;8.164;2023-01-23T11:04:49;101398.44;;;2.52;79.50
16777;BME280;8505;49.456;8.164;2023-01-23T11:07:19;101401.34;;;2.63;79.59
16777;BME280;8505;49.456;8.164;2023-01-23T11:09:50;101404.22;;;2.58;80.08
16777;BME280;8505;49.456;8.164;2023-01-23T11:12:21;101409.91;;;2.49;79.78
16777;BME280;8505;49.456;8.164;2023-01-23T11:14:49;101405.78;;;2.28;78.91
16777;BME280;8505;49.456;8.164;2023-01-23T11:17:21;101406.91;;;2.22;79.92
16777;BME280;8505;49.456;8.164;2023-01-23T11:19:52;101410.78;;;2.15;80.20
16777;BME280;8505;49.456;8.164;2023-01-23T11:22:25;101407.97;;;2.35;79.58
16777;BME280;8505;49.456;8.164;2023-01-23T11:24:53;101403.31;;;2.25;80.28
16777;BME280;8505;49.456;8.164;2023-01-23T11:27:23;101406.44;;;2.49;79.76
16777;BME280;8505;49.456;8.164;2023-01-23T11:30:26;101401.28;;;2.64;79.28
16777;BME280;8505;49.456;8.164;2023-01-23T11:32:58;101407.53;;;2.44;79.21
16777;BME280;8505;49.456;8.164;2023-01-23T11:35:46;101400.22;;;2.51;79.11
16777;BME280;8505;49.456;8.164;2023-01-23T11:38:16;101400.59;;;2.43;79.91
16777;BME280;8505;49.456;8.164;2023-01-23T11:40:56;101400.25;;;2.34;79.87
16777;BME280;8505;49.456;8.164;2023-01-23T11:43:24;101395.28;;;2.62;79.22
16777;BME280;8505;49.456;8.164;2023-01-23T11:46:05;101388.00;;;2.52;78.69
16777;BME280;8505;49.456;8.164;2023-01-23T11:48:50;101396.75;;;2.16;80.03
16777;BME280;8505;49.456;8.164;2023-01-23T11:51:26;101392.53;;;2.31;79.84
16777;BME280;8505;49.456;8.164;2023-01-23T11:54:03;101386.69;;;2.26;79.31
16777;BME280;8505;49.456;8.164;2023-01-23T11:56:47;101394.91;;;2.35;79.08
16777;BME280;8505;49.456;8.164;2023-01-23T11:59:44;101387.78;;;2.22;79.33
16777;BME280;8505;49.456;8.164;2023-01-23T12:02:34;101394.47;;;2.27;79.57
16777;BME280;8505;49.456;8.164;2023-01-23T12:05:14;101392.16;;;2.21;80.21
16777;BME280;8505;49.456;8.164;2023-01-23T12:07:56;101387.25;;;2.32;79.12
16777;BME280;8505;49.456;8.164;2023-01-23T12:10:36;101391.41;;;2.19;79.97
16777;BME280;8505;49.456;8.164;2023-01-23T12:13:20;101389.38;;;2.24;79.43
16777;BME280;8505;49.456;8.164;2023-01-23T12:16:02;101377.56;;;2.00;79.32
16777;BME280;8505;49.456;8.164;2023-01-23T12:18:41;101374.50;;;2.09;79.79
16777;BME280;8505;49.456;8.164;2023-01-23T12:21:16;101373.41;;;2.30;79.58
16777;BME280;8505;49.456;8.164;2023-01-23T12:24:08;101372.53;;;2.30;79.07
16777;BME280;8505;49.456;8.164;2023-01-23T12:26:44;101361.09;;;2.32;79.60
16777;BME280;8505;49.456;8.164;2023-01-23T12:29:44;101363.47;;;2.37;78.89
16777;BME280;8505;49.456;8.164;2023-01-23T12:32:27;101365.78;;;2.26;79.14
16777;BME280;8505;49.456;8.164;2023-01-23T12:35:11;101363.84;;;2.29;79.53
16777;BME280;8505;49.456;8.164;2023-01-23T12:37:52;101359.03;;;2.39;79.10
16777;BME280;8505;49.456;8.164;2023-01-23T12:40:30;101363.88;;;2.12;79.49
16777;BME280;8505;49.456;8.164;2023-01-23T12:43:03;101354.75;;;2.54;79.49
16777;BME280;8505;49.456;8.164;2023-01-23T12:45:36;101352.31;;;2.51;78.90
16777;BME280;8505;49.456;8.164;2023-01-23T12:48:12;101347.41;;;2.44;78.56
16777;BME280;8505;49.456;8.164;2023-01-23T12:50:44;101346.09;;;2.36;78.84
16777;BME280;8505;49.456;8.164;2023-01-23T12:53:14;101346.91;;;2.54;79.12
16777;BME280;8505;49.456;8.164;2023-01-23T12:55:53;101346.06;;;2.53;78.93
16777;BME280;8505;49.456;8.164;2023-01-23T12:58:24;101350.75;;;2.64;78.94
16777;BME280;8505;49.456;8.164;2023-01-23T13:01:03;101343.03;;;2.61;78.67
16777;BME280;8505;49.456;8.164;2023-01-23T13:03:39;101347.19;;;2.65;79.39
16777;BME280;8505;49.456;8.164;2023-01-23T13:06:25;101335.22;;;2.28;79.63
16777;BME280;8505;49.456;8.164;2023-01-23T13:09:01;101337.47;;;2.51;79.02
16777;BME280;8505;49.456;8.164;2023-01-23T13:11:52;101332.16;;;2.53;79.39
16777;BME280;8505;49.456;8.164;2023-01-23T13:14:36;101341.66;;;2.38;80.04
16777;BME280;8505;49.456;8.164;2023-01-23T13:17:35;101338.38;;;2.00;81.25
16777;BME280;8505;49.456;8.164;2023-01-23T13:20:18;101335.59;;;2.20;80.03
16777;BME280;8505;49.456;8.164;2023-01-23T13:23:24;101337.81;;;2.28;80.02
16777;BME280;8505;49.456;8.164;2023-01-23T13:26:25;101338.88;;;2.24;80.83
16777;BME280;8505;49.456;8.164;2023-01-23T13:29:00;101336.28;;;2.24;80.27
16777;BME280;8505;49.456;8.164;2023-01-23T13:31:37;101338.84;;;2.41;80.15
16777;BME280;8505;49.456;8.164;2023-01-23T13:34:34;101346.34;;;2.31;79.95
16777;BME280;8505;49.456;8.164;2023-01-23T13:37:31;101344.72;;;2.29;81.17